sensor_id;sensor_type;location;lat;lon;timestamp;temperature;humidity
11144;DHT22;5626;44.730;10.276;2022-08-25T00:00:51;23.10;86.20
11144;DHT22;5626;44.730;10.276;2022-08-25T00:03:21;23.10;86.40
11144;DHT22;5626;44.730;10.276;2022-08-25T00:05:51;23.10;86.60
11144;DHT22;5626;44.730;10.276;2022-08-25T00:08:22;23.00;86.60
11144;DHT22;5626;44.730;10.276;2022-08-25T00:10:51;23.00;87.00
11144;DHT22;5626;44.730;10.276;2022-08-25T00:13:21;22.90;87.10
11144;DHT22;5626;44.730;10.276;2022-08-25T00:15:50;22.90;87.30
11144;DHT22;5626;44.730;10.276;2022-08-25T00:18:20;22.90;87.30
11144;DHT22;5626;44.730;10.276;2022-08-25T00:20:49;22.80;87.30
11144;DHT22;5626;44.730;10.276;2022-08-25T00:23:19;22.80;87.20
11144;DHT22;5626;44.730;10.276;2022-08-25T00:25:50;22.80;87.20
11144;DHT22;5626;44.730;10.276;2022-08-25T00:28:20;22.80;87.10
11144;DHT22;5626;44.730;10.276;2022-08-25T00:30:50;22.80;87.20
11144;DHT22;5626;44.730;10.276;2022-08-25T00:33:19;22.80;87.30
11144;DHT22;5626;44.730;10.276;2022-08-25T00:35:49;22.80;87.50
11144;DHT22;5626;44.730;10.276;2022-08-25T00:38:19;22.80;87.60
11144;DHT22;5626;44.730;10.276;2022-08-25T00:40:51;22.80;88.60
11144;DHT22;5626;44.730;10.276;2022-08-25T00:43:42;22.70;88.00
11144;DHT22;5626;44.730;10.276;2022-08-25T00:46:15;22.70;87.90
11144;DHT22;5626;44.730;10.276;2022-08-25T00:48:48;22.70;87.90
11144;DHT22;5626;44.730;10.276;2022-08-25T00:51:24;22.70;88.10
11144;DHT22;5626;44.730;10.276;2022-08-25T00:53:56;22.70;88.00
11144;DHT22;5626;44.730;10.276;2022-08-25T00:56:28;22.70;88.20
11144;DHT22;5626;44.730;10.276;2022-08-25T00:58:59;22.60;88.30
11144;DHT22;5626;44.730;10.276;2022-08-25T01:01:28;22.60;88.40
11144;DHT22;5626;44.730;10.276;2022-08-25T01:03:58;22.60;88.60
11144;DHT22;5626;44.730;10.276;2022-08-25T01:06:30;22.60;88.60
11144;DHT22;5626;44.730;10.276;2022-08-25T01:09:03;22.50;88.50
11144;DHT22;5626;44.730;10.276;2022-08-25T01:11:36;22.60;88.80
11144;DHT22;5626;44.730;10.276;2022-08-25T01:14:06;22.60;88.70
11144;DHT22;5626;44.730;10.276;2022-08-25T01:16:38;22.50;88.70
11144;DHT22;5626;44.730;10.276;2022-08-25T01:19:08;22.50;88.60
11144;DHT22;5626;44.730;10.276;2022-08-25T01:21:43;22.50;88.90
11144;DHT22;5626;44.730;10.276;2022-08-25T01:24:19;22.50;88.90
11144;DHT22;5626;44.730;10.276;2022-08-25T01:26:51;22.50;89.20
11144;DHT22;5626;44.730;10.276;2022-08-25T01:29:21;22.50;89.30
11144;DHT22;5626;44.730;10.276;2022-08-25T01:31:55;22.40;89.50
11144;DHT22;5626;44.730;10.276;2022-08-25T01:34:26;22.40;89.80
11144;DHT22;5626;44.730;10.276;2022-08-25T01:36:58;22.40;90.20
11144;DHT22;5626;44.730;10.276;2022-08-25T01:39:30;22.30;90.00
11144;DHT22;5626;44.730;10.276;2022-08-25T01:42:22;22.30;90.10
11144;DHT22;5626;44.730;10.276;2022-08-25T01:44:52;22.30;90.10
11144;DHT22;5626;44.730;10.276;2022-08-25T01:47:22;22.30;90.10
11144;DHT22;5626;44.730;10.276;2022-08-25T01:49:52;22.30;90.20
11144;DHT22;5626;44.730;10.276;2022-08-25T01:52:28;22.30;90.40
11144;DHT22;5626;44.730;10.276;2022-08-25T01:54:58;22.20;90.70
11144;DHT22;5626;44.730;10.276;2022-08-25T01:57:29;22.10;90.80
11144;DHT22;5626;44.730;10.276;2022-08-25T01:59:59;22.00;90.80
11144;DHT22;5626;44.730;10.276;2022-08-25T02:02:38;22.00;90.80
11144;DHT22;5626;44.730;10.276;2022-08-25T02:05:08;22.00;90.80
11144;DHT22;5626;44.730;10.276;2022-08-25T02:07:40;22.00;90.90
11144;DHT22;5626;44.730;10.276;2022-08-25T02:10:11;22.10;90.70
11144;DHT22;5626;44.730;10.276;2022-08-25T02:12:41;22.20;90.70
11144;DHT22;5626;44.730;10.276;2022-08-25T02:15:11;22.20;90.70
11144;DHT22;5626;44.730;10.276;2022-08-25T02:17:41;22.20;90.50
11144;DHT22;5626;44.730;10.276;2022-08-25T02:20:11;22.20;90.50
11144;DHT22;5626;44.730;10.276;2022-08-25T02:22:42;22.20;90.60
11144;DHT22;5626;44.730;10.276;2022-08-25T02:25:12;22.20;91.00
11144;DHT22;5626;44.730;10.276;2022-08-25T02:27:43;22.10;91.30
11144;DHT22;5626;44.730;10.276;2022-08-25T02:30:15;22.10;91.20
11144;DHT22;5626;44.730;10.276;2022-08-25T02:32:45;22.00;91.30
11144;DHT22;5626;44.730;10.276;2022-08-25T02:35:14;22.00;91.40
11144;DHT22;5626;44.730;10.276;2022-08-25T02:37:45;22.00;91.40
11144;DHT22;5626;44.730;10.276;2022-08-25T02:40:15;22.00;91.30
11144;DHT22;5626;44.730;10.276;2022-08-25T02:42:44;22.00;91.30
11144;DHT22;5626;44.730;10.276;2022-08-25T02:45:14;22.00;91.20
11144;DHT22;5626;44.730;10.276;2022-08-25T02:47:45;22.00;91.20
11144;DHT22;5626;44.730;10.276;2022-08-25T02:50:14;22.00;91.20
11144;DHT22;5626;44.730;10.276;2022-08-25T02:52:45;22.00;91.20
11144;DHT22;5626;44.730;10.276;2022-08-25T02:55:17;22.10;91.20
11144;DHT22;5626;44.730;10.276;2022-08-25T02:57:47;22.10;91.20
11144;DHT22;5626;44.730;10.276;2022-08-25T03:00:17;22.10;91.20
11144;DHT22;5626;44.730;10.276;2022-08-25T03:02:47;22.10;91.30
11144;DHT22;5626;44.730;10.276;2022-08-25T03:05:17;22.00;91.40
11144;DHT22;5626;44.730;10.276;2022-08-25T03:07:47;22.00;91.50
11144;DHT22;5626;44.730;10.276;2022-08-25T03:10:17;22.00;91.60
11144;DHT22;5626;44.730;10.276;2022-08-25T03:12:47;21.90;91.70
11144;DHT22;5626;44.730;10.276;2022-08-25T03:15:17;21.80;91.70
11144;DHT22;5626;44.730;10.276;2022-08-25T03:17:47;21.80;91.80
11144;DHT22;5626;44.730;10.276;2022-08-25T03:20:17;21.80;91.90
11144;DHT22;5626;44.730;10.276;2022-08-25T03:22:49;21.80;91.80
11144;DHT22;5626;44.730;10.276;2022-08-25T03:25:19;21.80;91.80
11144;DHT22;5626;44.730;10.276;2022-08-25T03:28:06;21.80;91.70
11144;DHT22;5626;44.730;10.276;2022-08-25T03:30:36;21.80;91.70
11144;DHT22;5626;44.730;10.276;2022-08-25T03:33:06;21.80;91.60
11144;DHT22;5626;44.730;10.276;2022-08-25T03:35:36;21.90;91.60
11144;DHT22;5626;44.730;10.276;2022-08-25T03:38:07;21.90;91.50
11144;DHT22;5626;44.730;10.276;2022-08-25T03:40:37;21.90;91.50
11144;DHT22;5626;44.730;10.276;2022-08-25T03:43:06;21.90;91.50
11144;DHT22;5626;44.730;10.276;2022-08-25T03:45:39;21.90;91.90
11144;DHT22;5626;44.730;10.276;2022-08-25T03:48:10;21.90;92.10
11144;DHT22;5626;44.730;10.276;2022-08-25T03:50:43;21.90;92.30
11144;DHT22;5626;44.730;10.276;2022-08-25T03:53:14;21.80;92.20
11144;DHT22;5626;44.730;10.276;2022-08-25T03:55:44;21.90;92.30
11144;DHT22;5626;44.730;10.276;2022-08-25T03:58:14;21.80;92.50
11144;DHT22;5626;44.730;10.276;2022-08-25T04:00:45;21.80;92.80
11144;DHT22;5626;44.730;10.276;2022-08-25T04:03:14;21.70;93.00
11144;DHT22;5626;44.730;10.276;2022-08-25T04:05:45;21.70;93.00
11144;DHT22;5626;44.730;10.276;2022-08-25T04:08:16;21.70;93.10
11144;DHT22;5626;44.730;10.276;2022-08-25T04:10:46;21.70;93.00
11144;DHT22;5626;44.730;10.276;2022-08-25T04:13:16;21.70;93.00
11144;DHT22;5626;44.730;10.276;2022-08-25T04:15:46;21.60;93.00
11144;DHT22;5626;44.730;10.276;2022-08-25T04:18:16;21.60;93.20
11144;DHT22;5626;44.730;10.276;2022-08-25T04:20:45;21.60;93.40
11144;DHT22;5626;44.730;10.276;2022-08-25T04:23:16;21.50;93.50
11144;DHT22;5626;44.730;10.276;2022-08-25T04:25:46;21.50;93.60
11144;DHT22;5626;44.730;10.276;2022-08-25T04:28:16;21.40;93.70
11144;DHT22;5626;44.730;10.276;2022-08-25T04:30:45;21.40;93.80
11144;DHT22;5626;44.730;10.276;2022-08-25T04:33:18;21.30;93.80
11144;DHT22;5626;44.730;10.276;2022-08-25T04:35:48;21.30;93.90
11144;DHT22;5626;44.730;10.276;2022-08-25T04:38:19;21.30;93.80
11144;DHT22;5626;44.730;10.276;2022-08-25T04:40:55;21.30;93.60
11144;DHT22;5626;44.730;10.276;2022-08-25T04:43:24;21.30;93.50
11144;DHT22;5626;44.730;10.276;2022-08-25T04:45:54;21.40;93.50
11144;DHT22;5626;44.730;10.276;2022-08-25T04:48:24;21.40;93.40
11144;DHT22;5626;44.730;10.276;2022-08-25T04:50:54;21.40;93.30
11144;DHT22;5626;44.730;10.276;2022-08-25T04:53:25;21.50;93.20
11144;DHT22;5626;44.730;10.276;2022-08-25T04:55:55;21.50;93.30
11144;DHT22;5626;44.730;10.276;2022-08-25T04:58:27;21.50;93.40
11144;DHT22;5626;44.730;10.276;2022-08-25T05:01:01;21.50;93.20
11144;DHT22;5626;44.730;10.276;2022-08-25T05:03:31;21.60;93.20
11144;DHT22;5626;44.730;10.276;2022-08-25T05:06:00;21.60;93.20
11144;DHT22;5626;44.730;10.276;2022-08-25T05:08:32;21.60;93.30
11144;DHT22;5626;44.730;10.276;2022-08-25T05:11:04;21.60;93.60
11144;DHT22;5626;44.730;10.276;2022-08-25T05:13:35;21.50;93.70
11144;DHT22;5626;44.730;10.276;2022-08-25T05:16:04;21.50;93.80
11144;DHT22;5626;44.730;10.276;2022-08-25T05:18:35;21.50;93.80
11144;DHT22;5626;44.730;10.276;2022-08-25T05:21:06;21.60;93.80
11144;DHT22;5626;44.730;10.276;2022-08-25T05:23:38;21.60;93.60
11144;DHT22;5626;44.730;10.276;2022-08-25T05:26:09;21.70;93.20
11144;DHT22;5626;44.730;10.276;2022-08-25T05:28:41;21.80;93.10
11144;DHT22;5626;44.730;10.276;2022-08-25T05:31:12;21.90;93.00
11144;DHT22;5626;44.730;10.276;2022-08-25T05:33:42;21.90;93.10
11144;DHT22;5626;44.730;10.276;2022-08-25T05:36:14;22.00;93.20
11144;DHT22;5626;44.730;10.276;2022-08-25T05:38:45;22.10;93.20
11144;DHT22;5626;44.730;10.276;2022-08-25T05:41:20;22.20;93.00
11144;DHT22;5626;44.730;10.276;2022-08-25T05:43:50;22.30;92.70
11144;DHT22;5626;44.730;10.276;2022-08-25T05:46:20;22.30;92.60
11144;DHT22;5626;44.730;10.276;2022-08-25T05:48:50;22.40;92.70
11144;DHT22;5626;44.730;10.276;2022-08-25T05:51:20;22.50;92.80
11144;DHT22;5626;44.730;10.276;2022-08-25T05:53:51;22.50;92.80
11144;DHT22;5626;44.730;10.276;2022-08-25T05:56:21;22.60;92.70
11144;DHT22;5626;44.730;10.276;2022-08-25T05:58:50;22.80;92.60
11144;DHT22;5626;44.730;10.276;2022-08-25T06:01:23;22.80;92.60
11144;DHT22;5626;44.730;10.276;2022-08-25T06:04:10;23.00;92.40
11144;DHT22;5626;44.730;10.276;2022-08-25T06:06:40;23.10;92.30
11144;DHT22;5626;44.730;10.276;2022-08-25T06:09:12;23.30;92.20
11144;DHT22;5626;44.730;10.276;2022-08-25T06:11:41;23.40;92.10
11144;DHT22;5626;44.730;10.276;2022-08-25T06:14:11;23.40;92.00
11144;DHT22;5626;44.730;10.276;2022-08-25T06:16:41;23.50;92.30
11144;DHT22;5626;44.730;10.276;2022-08-25T06:19:11;23.60;91.70
11144;DHT22;5626;44.730;10.276;2022-08-25T06:21:41;23.70;91.70
11144;DHT22;5626;44.730;10.276;2022-08-25T06:24:12;23.70;91.60
11144;DHT22;5626;44.730;10.276;2022-08-25T06:26:42;23.80;91.80
11144;DHT22;5626;44.730;10.276;2022-08-25T06:29:12;23.90;91.80
11144;DHT22;5626;44.730;10.276;2022-08-25T06:31:42;24.00;91.50
11144;DHT22;5626;44.730;10.276;2022-08-25T06:34:12;24.00;91.20
11144;DHT22;5626;44.730;10.276;2022-08-25T06:36:41;24.10;90.90
11144;DHT22;5626;44.730;10.276;2022-08-25T06:39:12;24.10;90.70
11144;DHT22;5626;44.730;10.276;2022-08-25T06:41:42;24.20;90.50
11144;DHT22;5626;44.730;10.276;2022-08-25T06:44:12;24.20;90.40
11144;DHT22;5626;44.730;10.276;2022-08-25T06:46:41;24.30;90.30
11144;DHT22;5626;44.730;10.276;2022-08-25T06:49:11;24.40;89.90
11144;DHT22;5626;44.730;10.276;2022-08-25T06:51:41;24.50;89.40
11144;DHT22;5626;44.730;10.276;2022-08-25T06:54:12;24.50;89.30
11144;DHT22;5626;44.730;10.276;2022-08-25T06:56:42;24.70;89.40
11144;DHT22;5626;44.730;10.276;2022-08-25T06:59:12;24.70;89.60
11144;DHT22;5626;44.730;10.276;2022-08-25T07:01:41;24.80;90.10
11144;DHT22;5626;44.730;10.276;2022-08-25T07:04:11;24.80;90.20
11144;DHT22;5626;44.730;10.276;2022-08-25T07:06:41;24.90;90.50
11144;DHT22;5626;44.730;10.276;2022-08-25T07:09:13;25.00;90.60
11144;DHT22;5626;44.730;10.276;2022-08-25T07:11:43;25.20;90.70
11144;DHT22;5626;44.730;10.276;2022-08-25T07:14:15;25.30;90.70
11144;DHT22;5626;44.730;10.276;2022-08-25T07:16:46;25.40;90.50
11144;DHT22;5626;44.730;10.276;2022-08-25T07:19:17;25.50;90.20
11144;DHT22;5626;44.730;10.276;2022-08-25T07:21:50;25.70;89.50
11144;DHT22;5626;44.730;10.276;2022-08-25T07:24:23;25.80;88.60
11144;DHT22;5626;44.730;10.276;2022-08-25T07:26:53;25.90;88.40
11144;DHT22;5626;44.730;10.276;2022-08-25T07:29:25;26.00;88.50
11144;DHT22;5626;44.730;10.276;2022-08-25T07:31:55;26.20;87.80
11144;DHT22;5626;44.730;10.276;2022-08-25T07:34:25;26.30;86.50
11144;DHT22;5626;44.730;10.276;2022-08-25T07:37:12;26.50;84.60
11144;DHT22;5626;44.730;10.276;2022-08-25T07:39:48;26.60;84.00
11144;DHT22;5626;44.730;10.276;2022-08-25T07:42:18;26.80;84.40
11144;DHT22;5626;44.730;10.276;2022-08-25T07:44:47;26.90;84.00
11144;DHT22;5626;44.730;10.276;2022-08-25T07:47:17;27.10;83.70
11144;DHT22;5626;44.730;10.276;2022-08-25T07:49:46;27.20;84.40
11144;DHT22;5626;44.730;10.276;2022-08-25T07:52:16;27.30;84.20
11144;DHT22;5626;44.730;10.276;2022-08-25T07:54:45;27.50;83.50
11144;DHT22;5626;44.730;10.276;2022-08-25T07:57:17;27.60;83.30
11144;DHT22;5626;44.730;10.276;2022-08-25T07:59:46;27.70;82.50
11144;DHT22;5626;44.730;10.276;2022-08-25T08:02:16;27.90;81.60
11144;DHT22;5626;44.730;10.276;2022-08-25T08:04:47;28.00;80.80
11144;DHT22;5626;44.730;10.276;2022-08-25T08:07:18;28.10;79.80
11144;DHT22;5626;44.730;10.276;2022-08-25T08:09:48;28.20;78.90
11144;DHT22;5626;44.730;10.276;2022-08-25T08:12:24;28.40;78.50
11144;DHT22;5626;44.730;10.276;2022-08-25T08:14:54;28.40;78.70
11144;DHT22;5626;44.730;10.276;2022-08-25T08:17:24;28.60;78.90
11144;DHT22;5626;44.730;10.276;2022-08-25T08:19:54;28.70;75.90
11144;DHT22;5626;44.730;10.276;2022-08-25T08:22:23;28.80;75.40
11144;DHT22;5626;44.730;10.276;2022-08-25T08:24:53;29.00;76.30
11144;DHT22;5626;44.730;10.276;2022-08-25T08:27:24;29.10;74.90
11144;DHT22;5626;44.730;10.276;2022-08-25T08:29:54;29.10;74.60
11144;DHT22;5626;44.730;10.276;2022-08-25T08:32:24;29.30;75.90
11144;DHT22;5626;44.730;10.276;2022-08-25T08:34:57;29.40;74.70
11144;DHT22;5626;44.730;10.276;2022-08-25T08:37:27;29.50;73.90
11144;DHT22;5626;44.730;10.276;2022-08-25T08:39:56;29.60;72.90
11144;DHT22;5626;44.730;10.276;2022-08-25T08:42:41;29.70;71.30
11144;DHT22;5626;44.730;10.276;2022-08-25T08:45:27;29.80;72.40
11144;DHT22;5626;44.730;10.276;2022-08-25T08:48:11;29.90;72.40
11144;DHT22;5626;44.730;10.276;2022-08-25T08:50:46;29.90;69.90
11144;DHT22;5626;44.730;10.276;2022-08-25T08:53:24;30.00;70.90
11144;DHT22;5626;44.730;10.276;2022-08-25T08:55:58;30.10;69.60
11144;DHT22;5626;44.730;10.276;2022-08-25T08:58:37;30.10;70.00
11144;DHT22;5626;44.730;10.276;2022-08-25T09:01:08;30.10;70.20
11144;DHT22;5626;44.730;10.276;2022-08-25T09:03:41;30.20;71.80
11144;DHT22;5626;44.730;10.276;2022-08-25T09:06:16;30.40;71.90
11144;DHT22;5626;44.730;10.276;2022-08-25T09:08:46;30.50;71.10
11144;DHT22;5626;44.730;10.276;2022-08-25T09:11:24;30.60;71.20
11144;DHT22;5626;44.730;10.276;2022-08-25T09:14:08;30.70;72.00
11144;DHT22;5626;44.730;10.276;2022-08-25T09:16:45;30.80;70.10
11144;DHT22;5626;44.730;10.276;2022-08-25T09:19:52;30.80;70.10
11144;DHT22;5626;44.730;10.276;2022-08-25T09:22:31;30.90;70.50
11144;DHT22;5626;44.730;10.276;2022-08-25T09:25:12;31.10;69.60
11144;DHT22;5626;44.730;10.276;2022-08-25T09:27:55;31.10;69.20
11144;DHT22;5626;44.730;10.276;2022-08-25T09:30:34;31.20;68.50
11144;DHT22;5626;44.730;10.276;2022-08-25T09:33:08;31.20;69.30
11144;DHT22;5626;44.730;10.276;2022-08-25T09:35:40;31.20;68.00
11144;DHT22;5626;44.730;10.276;2022-08-25T09:38:11;31.30;67.50
11144;DHT22;5626;44.730;10.276;2022-08-25T09:40:43;31.30;67.50
11144;DHT22;5626;44.730;10.276;2022-08-25T09:43:21;31.40;68.20
11144;DHT22;5626;44.730;10.276;2022-08-25T09:45:58;31.50;66.20
11144;DHT22;5626;44.730;10.276;2022-08-25T09:48:31;31.50;66.30
11144;DHT22;5626;44.730;10.276;2022-08-25T09:51:16;31.60;67.50
11144;DHT22;5626;44.730;10.276;2022-08-25T09:53:50;31.60;67.40
11144;DHT22;5626;44.730;10.276;2022-08-25T09:56:22;31.70;67.50
11144;DHT22;5626;44.730;10.276;2022-08-25T09:58:53;31.70;67.30
11144;DHT22;5626;44.730;10.276;2022-08-25T10:01:28;31.80;67.40
11144;DHT22;5626;44.730;10.276;2022-08-25T10:04:00;31.90;68.20
11144;DHT22;5626;44.730;10.276;2022-08-25T10:06:34;31.90;67.70
11144;DHT22;5626;44.730;10.276;2022-08-25T10:09:06;32.10;68.20
11144;DHT22;5626;44.730;10.276;2022-08-25T10:11:40;32.20;67.20
11144;DHT22;5626;44.730;10.276;2022-08-25T10:14:19;32.20;65.80
11144;DHT22;5626;44.730;10.276;2022-08-25T10:16:51;32.20;64.70
11144;DHT22;5626;44.730;10.276;2022-08-25T10:19:27;32.30;64.20
11144;DHT22;5626;44.730;10.276;2022-08-25T10:22:06;32.20;64.40
11144;DHT22;5626;44.730;10.276;2022-08-25T10:24:37;32.30;66.70
11144;DHT22;5626;44.730;10.276;2022-08-25T10:27:18;32.40;68.60
11144;DHT22;5626;44.730;10.276;2022-08-25T10:30:04;32.50;66.30
11144;DHT22;5626;44.730;10.276;2022-08-25T10:33:02;32.60;65.40
11144;DHT22;5626;44.730;10.276;2022-08-25T10:35:42;32.60;64.40
11144;DHT22;5626;44.730;10.276;2022-08-25T10:38:33;32.60;64.10
11144;DHT22;5626;44.730;10.276;2022-08-25T10:41:32;32.70;64.80
11144;DHT22;5626;44.730;10.276;2022-08-25T10:44:17;32.70;64.60
11144;DHT22;5626;44.730;10.276;2022-08-25T10:50:30;32.80;64.40
11144;DHT22;5626;44.730;10.276;2022-08-25T10:53:11;32.90;64.00
11144;DHT22;5626;44.730;10.276;2022-08-25T10:55:49;32.90;64.30
11144;DHT22;5626;44.730;10.276;2022-08-25T10:58:28;33.10;63.70
11144;DHT22;5626;44.730;10.276;2022-08-25T11:01:10;33.10;62.20
11144;DHT22;5626;44.730;10.276;2022-08-25T11:03:47;33.20;61.40
11144;DHT22;5626;44.730;10.276;2022-08-25T11:06:22;33.20;61.50
11144;DHT22;5626;44.730;10.276;2022-08-25T11:08:56;33.20;62.70
11144;DHT22;5626;44.730;10.276;2022-08-25T11:11:30;33.40;64.20
11144;DHT22;5626;44.730;10.276;2022-08-25T11:14:03;33.50;63.90
11144;DHT22;5626;44.730;10.276;2022-08-25T11:16:38;33.50;63.20
11144;DHT22;5626;44.730;10.276;2022-08-25T11:19:14;33.50;62.90
11144;DHT22;5626;44.730;10.276;2022-08-25T11:21:52;33.50;61.40
11144;DHT22;5626;44.730;10.276;2022-08-25T11:24:48;33.50;60.70
11144;DHT22;5626;44.730;10.276;2022-08-25T11:27:21;33.40;61.20
11144;DHT22;5626;44.730;10.276;2022-08-25T11:29:58;33.50;62.80
11144;DHT22;5626;44.730;10.276;2022-08-25T11:32:30;33.60;62.50
11144;DHT22;5626;44.730;10.276;2022-08-25T11:35:05;33.70;61.80
11144;DHT22;5626;44.730;10.276;2022-08-25T11:37:43;33.70;63.20
11144;DHT22;5626;44.730;10.276;2022-08-25T11:40:25;33.80;62.80
11144;DHT22;5626;44.730;10.276;2022-08-25T11:43:04;33.70;62.90
11144;DHT22;5626;44.730;10.276;2022-08-25T11:45:53;33.70;61.00
11144;DHT22;5626;44.730;10.276;2022-08-25T11:48:38;33.80;61.40
11144;DHT22;5626;44.730;10.276;2022-08-25T11:51:11;33.90;61.00
11144;DHT22;5626;44.730;10.276;2022-08-25T11:53:43;33.90;60.80
11144;DHT22;5626;44.730;10.276;2022-08-25T11:56:31;33.80;61.40
11144;DHT22;5626;44.730;10.276;2022-08-25T11:59:02;33.80;61.40
11144;DHT22;5626;44.730;10.276;2022-08-25T12:04:40;33.90;59.90
11144;DHT22;5626;44.730;10.276;2022-08-25T12:07:22;33.90;59.80
11144;DHT22;5626;44.730;10.276;2022-08-25T12:10:14;34.00;60.40
11144;DHT22;5626;44.730;10.276;2022-08-25T12:12:57;34.10;60.20
11144;DHT22;5626;44.730;10.276;2022-08-25T12:15:33;34.10;59.30
11144;DHT22;5626;44.730;10.276;2022-08-25T12:18:09;34.10;59.60
11144;DHT22;5626;44.730;10.276;2022-08-25T12:21:14;34.10;60.00
11144;DHT22;5626;44.730;10.276;2022-08-25T12:24:03;34.20;60.00
11144;DHT22;5626;44.730;10.276;2022-08-25T12:26:43;34.30;59.70
11144;DHT22;5626;44.730;10.276;2022-08-25T12:29:18;34.30;60.30
11144;DHT22;5626;44.730;10.276;2022-08-25T12:32:11;34.40;60.90
11144;DHT22;5626;44.730;10.276;2022-08-25T12:34:53;34.40;59.30
11144;DHT22;5626;44.730;10.276;2022-08-25T12:37:30;34.40;60.70
11144;DHT22;5626;44.730;10.276;2022-08-25T12:40:02;34.50;59.80
11144;DHT22;5626;44.730;10.276;2022-08-25T12:42:36;34.60;59.60
11144;DHT22;5626;44.730;10.276;2022-08-25T12:45:32;34.50;59.10
11144;DHT22;5626;44.730;10.276;2022-08-25T12:48:41;34.60;59.10
11144;DHT22;5626;44.730;10.276;2022-08-25T12:51:16;34.50;58.60
11144;DHT22;5626;44.730;10.276;2022-08-25T12:53:49;34.50;59.40
11144;DHT22;5626;44.730;10.276;2022-08-25T12:56:27;34.60;60.30
11144;DHT22;5626;44.730;10.276;2022-08-25T12:59:13;34.60;59.30
11144;DHT22;5626;44.730;10.276;2022-08-25T13:02:08;34.60;59.70
11144;DHT22;5626;44.730;10.276;2022-08-25T13:05:00;34.50;58.90
11144;DHT22;5626;44.730;10.276;2022-08-25T13:07:45;34.60;59.00
11144;DHT22;5626;44.730;10.276;2022-08-25T13:13:15;34.80;58.80
11144;DHT22;5626;44.730;10.276;2022-08-25T13:15:57;34.80;59.90
11144;DHT22;5626;44.730;10.276;2022-08-25T13:18:29;34.80;57.00
11144;DHT22;5626;44.730;10.276;2022-08-25T13:21:03;34.70;58.20
11144;DHT22;5626;44.730;10.276;2022-08-25T13:23:37;34.80;59.10
11144;DHT22;5626;44.730;10.276;2022-08-25T13:26:11;34.80;60.60
11144;DHT22;5626;44.730;10.276;2022-08-25T13:28:43;34.80;57.60
11144;DHT22;5626;44.730;10.276;2022-08-25T13:31:19;34.80;57.90
11144;DHT22;5626;44.730;10.276;2022-08-25T13:33:51;34.80;59.30
11144;DHT22;5626;44.730;10.276;2022-08-25T13:36:23;34.80;58.40
11144;DHT22;5626;44.730;10.276;2022-08-25T13:39:14;34.80;58.30
11144;DHT22;5626;44.730;10.276;2022-08-25T13:41:46;34.90;58.90
11144;DHT22;5626;44.730;10.276;2022-08-25T13:44:17;34.90;59.30
11144;DHT22;5626;44.730;10.276;2022-08-25T13:47:04;34.90;57.80
11144;DHT22;5626;44.730;10.276;2022-08-25T13:49:36;35.00;57.10
11144;DHT22;5626;44.730;10.276;2022-08-25T13:52:07;34.90;56.70
11144;DHT22;5626;44.730;10.276;2022-08-25T13:54:44;34.90;57.50
11144;DHT22;5626;44.730;10.276;2022-08-25T13:57:20;34.90;58.00
11144;DHT22;5626;44.730;10.276;2022-08-25T13:59:54;34.90;59.90
11144;DHT22;5626;44.730;10.276;2022-08-25T14:02:45;34.90;58.70
11144;DHT22;5626;44.730;10.276;2022-08-25T14:05:27;34.90;58.00
11144;DHT22;5626;44.730;10.276;2022-08-25T14:07:58;34.90;58.10
11144;DHT22;5626;44.730;10.276;2022-08-25T14:10:38;34.90;58.80
11144;DHT22;5626;44.730;10.276;2022-08-25T14:13:30;34.90;58.70
11144;DHT22;5626;44.730;10.276;2022-08-25T14:16:07;34.90;60.00
11144;DHT22;5626;44.730;10.276;2022-08-25T14:18:45;34.90;60.00
11144;DHT22;5626;44.730;10.276;2022-08-25T14:21:15;34.90;59.40
11144;DHT22;5626;44.730;10.276;2022-08-25T14:23:45;35.00;58.70
11144;DHT22;5626;44.730;10.276;2022-08-25T14:26:15;35.00;58.00
11144;DHT22;5626;44.730;10.276;2022-08-25T14:28:45;35.00;58.60
11144;DHT22;5626;44.730;10.276;2022-08-25T14:31:22;35.00;59.40
11144;DHT22;5626;44.730;10.276;2022-08-25T14:33:57;35.00;59.00
11144;DHT22;5626;44.730;10.276;2022-08-25T14:36:28;35.00;58.20
11144;DHT22;5626;44.730;10.276;2022-08-25T14:38:59;35.00;59.00
11144;DHT22;5626;44.730;10.276;2022-08-25T14:41:34;35.00;57.40
11144;DHT22;5626;44.730;10.276;2022-08-25T14:44:04;35.00;56.90
11144;DHT22;5626;44.730;10.276;2022-08-25T14:46:37;34.90;58.30
11144;DHT22;5626;44.730;10.276;2022-08-25T14:49:11;34.90;58.20
11144;DHT22;5626;44.730;10.276;2022-08-25T14:51:42;34.90;58.90
11144;DHT22;5626;44.730;10.276;2022-08-25T14:54:13;34.90;58.80
11144;DHT22;5626;44.730;10.276;2022-08-25T14:56:45;34.90;58.80
11144;DHT22;5626;44.730;10.276;2022-08-25T14:59:16;34.90;58.40
11144;DHT22;5626;44.730;10.276;2022-08-25T15:01:46;34.90;58.30
11144;DHT22;5626;44.730;10.276;2022-08-25T15:04:20;34.90;58.20
11144;DHT22;5626;44.730;10.276;2022-08-25T15:06:53;34.90;58.50
11144;DHT22;5626;44.730;10.276;2022-08-25T15:09:24;34.90;58.30
11144;DHT22;5626;44.730;10.276;2022-08-25T15:11:54;34.90;59.00
11144;DHT22;5626;44.730;10.276;2022-08-25T15:14:24;34.90;59.20
11144;DHT22;5626;44.730;10.276;2022-08-25T15:16:55;34.90;60.00
11144;DHT22;5626;44.730;10.276;2022-08-25T15:19:27;34.90;57.80
11144;DHT22;5626;44.730;10.276;2022-08-25T15:21:57;34.80;57.60
11144;DHT22;5626;44.730;10.276;2022-08-25T15:24:27;34.70;57.20
11144;DHT22;5626;44.730;10.276;2022-08-25T15:26:58;34.60;58.70
11144;DHT22;5626;44.730;10.276;2022-08-25T15:29:29;34.50;59.00
11144;DHT22;5626;44.730;10.276;2022-08-25T15:32:00;34.50;59.30
11144;DHT22;5626;44.730;10.276;2022-08-25T15:34:32;34.50;59.60
11144;DHT22;5626;44.730;10.276;2022-08-25T15:37:07;34.50;59.20
11144;DHT22;5626;44.730;10.276;2022-08-25T15:39:38;34.50;59.10
11144;DHT22;5626;44.730;10.276;2022-08-25T15:42:09;34.50;59.80
11144;DHT22;5626;44.730;10.276;2022-08-25T15:44:39;34.40;59.50
11144;DHT22;5626;44.730;10.276;2022-08-25T15:47:09;34.30;59.40
11144;DHT22;5626;44.730;10.276;2022-08-25T15:49:40;34.30;59.50
11144;DHT22;5626;44.730;10.276;2022-08-25T15:52:10;34.30;60.00
11144;DHT22;5626;44.730;10.276;2022-08-25T15:54:40;34.20;60.30
11144;DHT22;5626;44.730;10.276;2022-08-25T15:57:10;34.10;60.00
11144;DHT22;5626;44.730;10.276;2022-08-25T15:59:40;34.10;60.70
11144;DHT22;5626;44.730;10.276;2022-08-25T16:02:10;34.00;60.80
11144;DHT22;5626;44.730;10.276;2022-08-25T16:04:41;34.00;61.40
11144;DHT22;5626;44.730;10.276;2022-08-25T16:07:11;33.80;60.10
11144;DHT22;5626;44.730;10.276;2022-08-25T16:09:41;33.70;61.00
11144;DHT22;5626;44.730;10.276;2022-08-25T16:12:10;33.60;62.70
11144;DHT22;5626;44.730;10.276;2022-08-25T16:14:40;33.60;62.70
11144;DHT22;5626;44.730;10.276;2022-08-25T16:17:10;33.40;61.90
11144;DHT22;5626;44.730;10.276;2022-08-25T16:19:41;33.30;61.60